createdAt,value
2023-02-11T00:02:23.734Z,77.79
2023-02-11T00:05:01.537Z,77.95
2023-02-11T00:07:37.492Z,77.72
2023-02-11T00:10:12.035Z,78.26
2023-02-11T00:12:46.256Z,78.39
2023-02-11T00:15:21.293Z,78.11
2023-02-11T00:17:55.522Z,77.81
2023-02-11T00:20:31.602Z,77.42
2023-02-11T00:23:05.906Z,77.28
2023-02-11T00:25:41.634Z,77.05
2023-02-11T00:28:15.949Z,77.25
2023-02-11T00:30:55.999Z,77.17
2023-02-11T00:33:30.330Z,76.68
2023-02-11T00:36:08.852Z,76.77
2023-02-11T00:38:45.230Z,76.43
2023-02-11T00:41:20.998Z,75.84
2023-02-11T00:43:55.172Z,75.44
2023-02-11T00:46:29.948Z,75.27
2023-02-11T00:49:04.359Z,75.53
2023-02-11T00:51:40.485Z,75.21
2023-02-11T00:54:14.736Z,75.53
2023-02-11T00:56:49.335Z,75.10
2023-02-11T00:59:24.463Z,74.86
2023-02-11T01:01:59.057Z,76.40
2023-02-11T01:04:33.449Z,76.93
2023-02-11T01:07:09.660Z,77.25
2023-02-11T01:09:43.974Z,76.46
2023-02-11T01:12:18.878Z,75.59
2023-02-11T01:14:53.024Z,75.13
2023-02-11T01:17:27.577Z,75.05
2023-02-11T01:20:05.043Z,75.31
2023-02-11T01:22:41.311Z,74.96
2023-02-11T01:25:15.611Z,75.10
2023-02-11T01:27:50.275Z,75.09
2023-02-11T01:30:24.661Z,74.79
2023-02-11T01:32:59.234Z,74.51
2023-02-11T01:35:33.498Z,74.60
2023-02-11T01:38:15.530Z,74.70
2023-02-11T01:40:51.428Z,75.17
2023-02-11T01:43:27.341Z,75.18
2023-02-11T01:46:06.773Z,76.03
2023-02-11T01:48:45.092Z,75.91
2023-02-11T01:51:23.942Z,75.98
2023-02-11T01:54:18.380Z,76.12
2023-02-11T01:57:13.853Z,76.14
2023-02-11T01:59:55.669Z,76.10
2023-02-11T02:02:35.705Z,75.11
2023-02-11T02:05:18.897Z,74.95
2023-02-11T02:08:02.038Z,74.85
2023-02-11T02:10:44.473Z,75.45
2023-02-11T02:13:18.741Z,75.73
2023-02-11T02:15:55.002Z,76.14
2023-02-11T02:18:41.073Z,75.99
2023-02-11T02:21:54.601Z,75.39
2023-02-11T02:24:58.171Z,75.67
2023-02-11T02:27:55.181Z,76.29
2023-02-11T02:30:53.056Z,76.02
2023-02-11T02:33:52.549Z,75.97
2023-02-11T02:36:36.398Z,75.52
2023-02-11T02:39:16.049Z,75.19
2023-02-11T02:41:52.957Z,75.08
2023-02-11T02:44:27.633Z,74.99
2023-02-11T02:47:02.231Z,75.23
2023-02-11T02:49:38.375Z,75.41
2023-02-11T02:52:27.416Z,74.73
2023-02-11T02:55:26.197Z,75.47
2023-02-11T02:58:42.857Z,75.27
2023-02-11T03:01:27.796Z,75.04
2023-02-11T03:04:13.454Z,76.00
2023-02-11T03:06:55.119Z,75.23
2023-02-11T03:09:33.854Z,74.56
2023-02-11T03:12:10.685Z,74.53
2023-02-11T03:14:46.589Z,74.93
2023-02-11T03:17:22.581Z,75.11
2023-02-11T03:19:59.299Z,75.14
2023-02-11T03:22:41.545Z,75.03
2023-02-11T03:25:16.569Z,74.12
2023-02-11T03:27:57.349Z,74.23
2023-02-11T03:30:37.184Z,74.15
2023-02-11T03:33:20.072Z,75.16
2023-02-11T03:35:58.278Z,74.96
2023-02-11T03:38:38.767Z,75.01
2023-02-11T03:41:16.307Z,74.69
2023-02-11T03:43:53.548Z,74.39
2023-02-11T03:46:32.658Z,74.65
2023-02-11T03:49:11.445Z,74.62
2023-02-11T03:51:46.384Z,74.70
2023-02-11T03:54:31.526Z,74.86
2023-02-11T03:57:06.127Z,74.88
2023-02-11T03:59:55.689Z,74.57
2023-02-11T04:02:32.786Z,73.95
2023-02-11T04:05:09.256Z,74.57
2023-02-11T04:07:43.695Z,73.23
2023-02-11T04:10:20.030Z,74.04
2023-02-11T04:12:54.604Z,74.38
2023-02-11T04:15:30.282Z,73.89
2023-02-11T04:18:04.751Z,72.59
2023-02-11T04:20:39.296Z,73.00
2023-02-11T04:23:13.529Z,73.37
2023-02-11T04:25:50.761Z,75.80
2023-02-11T04:28:26.877Z,75.42
2023-02-11T04:31:01.596Z,76.08
2023-02-11T04:33:35.834Z,76.19
2023-02-11T04:36:10.500Z,75.26
2023-02-11T04:38:44.760Z,75.50
2023-02-11T04:41:21.026Z,75.27
2023-02-11T04:43:55.246Z,74.52
2023-02-11T04:46:30.093Z,74.56
2023-02-11T04:49:05.067Z,74.95
2023-02-11T04:51:39.825Z,75.73
2023-02-11T04:54:15.004Z,76.64
2023-02-11T04:56:51.246Z,77.37
2023-02-11T04:59:25.890Z,77.19
2023-02-11T05:02:00.376Z,77.64
2023-02-11T05:04:35.764Z,77.51
2023-02-11T05:07:10.568Z,76.93
2023-02-11T05:09:44.889Z,75.93
2023-02-11T05:12:20.945Z,76.66
2023-02-11T05:14:55.225Z,75.86
2023-02-11T05:17:29.734Z,76.45
2023-02-11T05:20:04.133Z,77.30
2023-02-11T05:22:39.049Z,77.74
2023-02-11T05:25:13.281Z,78.11
2023-02-11T05:27:49.193Z,78.33
2023-02-11T05:30:23.521Z,78.64
2023-02-11T05:32:58.320Z,79.83
2023-02-11T05:35:32.827Z,79.22
2023-02-11T05:38:08.093Z,77.87
2023-02-11T05:40:42.668Z,77.42
2023-02-11T05:43:18.555Z,77.11
2023-02-11T05:45:53.163Z,78.21
2023-02-11T05:48:27.982Z,78.03
2023-02-11T05:51:02.591Z,78.35
2023-02-11T05:53:37.191Z,79.43
2023-02-11T05:56:11.736Z,78.60
2023-02-11T05:58:48.383Z,77.16
2023-02-11T06:01:22.699Z,77.39
2023-02-11T06:03:57.657Z,78.20
2023-02-11T06:06:32.401Z,100.00
2023-02-11T06:09:07.018Z,100.00
2023-02-11T06:11:41.211Z,100.00
2023-02-11T06:14:17.285Z,100.00
2023-02-11T06:16:51.492Z,91.09
2023-02-11T06:19:26.099Z,90.95
2023-02-11T06:22:00.482Z,89.03
2023-02-11T06:24:58.699Z,87.40
2023-02-11T06:27:29.360Z,88.10
2023-02-11T06:30:06.487Z,90.93
2023-02-11T06:32:45.431Z,89.13
2023-02-11T06:35:20.832Z,84.94
2023-02-11T06:37:55.164Z,82.00
2023-02-11T06:40:29.661Z,80.25
2023-02-11T06:43:07.388Z,82.63
2023-02-11T06:45:43.420Z,81.25
2023-02-11T06:48:18.500Z,100.00
2023-02-11T06:50:53.260Z,100.00
2023-02-11T06:53:27.554Z,93.34
2023-02-11T06:56:04.722Z,90.38
2023-02-11T06:58:39.385Z,90.12
2023-02-11T07:02:54.067Z,100.00
2023-02-11T07:05:28.951Z,100.00
2023-02-11T07:08:03.219Z,100.00
2023-02-11T07:10:37.757Z,87.21
2023-02-11T07:13:12.056Z,83.33
2023-02-11T07:15:46.834Z,82.90
2023-02-11T07:18:22.453Z,80.89
2023-02-11T07:20:57.001Z,80.11
2023-02-11T07:23:31.352Z,79.25
2023-02-11T07:26:06.345Z,78.80
2023-02-11T07:28:41.982Z,78.95
2023-02-11T07:31:18.171Z,79.89
2023-02-11T07:33:59.994Z,79.18
2023-02-11T07:36:34.525Z,79.62
2023-02-11T07:39:08.810Z,82.74
2023-02-11T07:41:44.492Z,100.00
2023-02-11T07:44:19.044Z,100.00
2023-02-11T07:46:53.521Z,85.29
2023-02-11T07:49:29.524Z,86.92
2023-02-11T07:52:04.134Z,80.86
2023-02-11T07:54:38.315Z,79.17
2023-02-11T07:57:12.863Z,79.14
2023-02-11T07:59:47.238Z,81.09
2023-02-11T08:02:21.875Z,80.11
2023-02-11T08:04:57.899Z,79.26
2023-02-11T08:07:32.456Z,78.27
2023-02-11T08:10:07.482Z,78.21
2023-02-11T08:12:41.766Z,100.00
2023-02-11T08:15:17.249Z,100.00
2023-02-11T08:17:51.497Z,87.10
2023-02-11T08:20:27.460Z,80.37
2023-02-11T08:23:02.271Z,79.94
2023-02-11T08:25:36.769Z,79.18
2023-02-11T08:28:11.280Z,79.55
2023-02-11T08:30:46.014Z,79.04
2023-02-11T08:33:20.271Z,79.08
2023-02-11T08:35:56.275Z,79.88
2023-02-11T08:38:30.486Z,100.00
2023-02-11T08:41:05.765Z,93.83
2023-02-11T08:43:41.781Z,84.58
2023-02-11T08:46:19.120Z,78.59
2023-02-11T08:48:53.933Z,77.33
2023-02-11T08:51:31.698Z,76.14
2023-02-11T08:54:09.582Z,76.80
2023-02-11T08:56:44.115Z,76.97
2023-02-11T08:59:18.854Z,76.19
2023-02-11T09:01:53.688Z,76.16
2023-02-11T09:04:28.235Z,76.94
2023-02-11T09:07:04.867Z,76.26
2023-02-11T09:09:39.405Z,75.34
2023-02-11T09:12:14.207Z,76.04
2023-02-11T09:14:48.692Z,75.23
2023-02-11T09:17:23.165Z,75.11
2023-02-11T09:19:57.644Z,74.83
2023-02-11T09:22:33.495Z,74.14
2023-02-11T09:25:08.392Z,73.74
2023-02-11T09:27:42.928Z,73.67
2023-02-11T09:30:17.541Z,72.15
2023-02-11T09:32:52.134Z,71.86
2023-02-11T09:35:27.047Z,69.34
2023-02-11T09:38:03.158Z,69.94
2023-02-11T09:40:37.414Z,67.93
2023-02-11T09:43:19.271Z,66.14
2023-02-11T09:45:57.104Z,63.94
2023-02-11T09:48:42.727Z,62.64
2023-02-11T09:51:25.843Z,62.25
2023-02-11T09:54:06.900Z,62.39
2023-02-11T09:56:41.126Z,62.24
2023-02-11T09:59:17.686Z,64.00
2023-02-11T10:01:55.430Z,86.33
2023-02-11T10:04:46.809Z,89.82
2023-02-11T10:07:32.101Z,60.55
2023-02-11T10:10:19.704Z,58.27
2023-02-11T10:13:08.162Z,56.99
2023-02-11T10:15:50.065Z,56.76
2023-02-11T10:18:41.607Z,56.30
2023-02-11T10:21:29.017Z,56.62
2023-02-11T10:24:07.236Z,55.17
2023-02-11T10:26:44.743Z,56.37
2023-02-11T10:29:32.535Z,55.79
2023-02-11T10:32:28.106Z,54.83
2023-02-11T10:35:05.057Z,54.24
2023-02-11T10:37:39.571Z,54.58
2023-02-11T10:40:19.933Z,55.32
2023-02-11T10:42:59.281Z,54.50
2023-02-11T10:45:36.219Z,54.88
2023-02-11T10:48:39.221Z,54.08
2023-02-11T10:51:22.665Z,54.20
2023-02-11T10:54:14.562Z,54.01
2023-02-11T10:56:52.235Z,52.29
2023-02-11T10:59:31.365Z,52.42
2023-02-11T11:02:19.220Z,66.55
2023-02-11T11:04:58.635Z,50.75
2023-02-11T11:07:35.206Z,49.93
2023-02-11T11:10:29.105Z,50.03
2023-02-11T11:13:03.324Z,50.24
2023-02-11T11:15:39.291Z,50.11
2023-02-11T11:18:22.839Z,49.21
2023-02-11T11:21:00.962Z,50.33
2023-02-11T11:23:38.074Z,48.89
2023-02-11T11:26:15.750Z,48.29
2023-02-11T11:28:57.253Z,48.31
2023-02-11T11:31:36.782Z,46.77
2023-02-11T11:34:23.215Z,47.58
2023-02-11T11:36:59.937Z,46.61
2023-02-11T11:39:36.767Z,45.74
2023-02-11T11:42:27.085Z,46.29
2023-02-11T11:45:03.856Z,46.10
2023-02-11T11:47:46.188Z,46.82
2023-02-11T11:50:28.113Z,47.50
2023-02-11T11:53:08.457Z,47.58
2023-02-11T11:55:46.577Z,47.53
2023-02-11T11:58:24.316Z,48.01
2023-02-11T12:01:09.511Z,46.37
2023-02-11T12:04:12.092Z,47.11
2023-02-11T12:06:56.974Z,48.21
2023-02-11T12:09:41.358Z,48.75
2023-02-11T12:12:35.327Z,45.85
2023-02-11T12:15:23.035Z,45.50
2023-02-11T12:18:14.448Z,46.60
2023-02-11T12:21:15.174Z,52.56
2023-02-11T12:24:02.681Z,45.53
2023-02-11T12:26:46.790Z,45.40
2023-02-11T12:29:32.304Z,43.64
2023-02-11T12:32:20.503Z,43.10
2023-02-11T12:35:23.737Z,43.71
2023-02-11T12:38:32.381Z,43.03
2023-02-11T12:41:46.688Z,43.16
2023-02-11T12:44:32.400Z,43.39
2023-02-11T12:47:20.573Z,42.86
2023-02-11T12:50:10.482Z,43.91
2023-02-11T12:52:57.805Z,43.27
2023-02-11T12:55:38.223Z,42.45
2023-02-11T12:58:18.311Z,42.60
2023-02-11T13:00:55.628Z,44.13
2023-02-11T13:03:33.322Z,43.40
2023-02-11T13:06:12.146Z,43.68
2023-02-11T13:08:49.617Z,44.39
2023-02-11T13:11:29.218Z,44.65
2023-02-11T13:14:07.393Z,43.87
2023-02-11T13:16:46.542Z,44.12
2023-02-11T13:19:28.236Z,43.55
2023-02-11T13:22:09.630Z,51.48
2023-02-11T13:24:48.102Z,42.87
2023-02-11T13:27:34.607Z,42.69
2023-02-11T13:30:28.319Z,43.45
2023-02-11T13:33:19.086Z,44.99
2023-02-11T13:36:18.917Z,44.47
2023-02-11T13:39:03.224Z,42.45
2023-02-11T13:41:41.756Z,43.16
2023-02-11T13:44:27.388Z,44.00
2023-02-11T13:47:04.757Z,43.38
2023-02-11T13:49:42.190Z,42.11
2023-02-11T13:52:25.866Z,43.25
2023-02-11T13:55:08.832Z,43.34
2023-02-11T13:57:43.858Z,44.09
2023-02-11T14:00:51.444Z,43.65
2023-02-11T14:03:47.316Z,43.13
2023-02-11T14:06:42.533Z,44.12
2023-02-11T14:09:47.522Z,43.98
2023-02-11T14:12:37.153Z,44.78
2023-02-11T14:15:28.969Z,44.42
2023-02-11T14:18:25.125Z,44.56
2023-02-11T14:21:13.243Z,44.69
2023-02-11T14:23:48.597Z,45.46
2023-02-11T14:26:36.088Z,46.05
2023-02-11T14:29:18.637Z,46.08
2023-02-11T14:32:04.017Z,45.77
2023-02-11T14:34:52.853Z,45.62
2023-02-11T14:37:39.679Z,64.27
2023-02-11T14:40:24.733Z,56.25
2023-02-11T14:43:08.954Z,47.57
2023-02-11T14:45:46.758Z,45.52
2023-02-11T14:48:24.525Z,45.93
2023-02-11T14:51:04.054Z,45.98
2023-02-11T14:53:42.477Z,46.65
2023-02-11T14:56:22.180Z,47.60
2023-02-11T14:58:57.248Z,47.87
2023-02-11T15:03:33.033Z,47.45
2023-02-11T15:06:15.540Z,47.45
2023-02-11T15:08:53.626Z,50.08
2023-02-11T15:11:32.249Z,49.96
2023-02-11T15:14:11.918Z,49.85
2023-02-11T15:16:48.754Z,49.97
2023-02-11T15:19:33.046Z,63.27
2023-02-11T15:22:20.286Z,49.32
2023-02-11T15:25:04.033Z,49.96
2023-02-11T15:27:43.019Z,50.03
2023-02-11T15:30:34.205Z,50.20
2023-02-11T15:33:23.025Z,50.94
2023-02-11T15:35:59.489Z,51.28
2023-02-11T15:38:34.205Z,51.22
2023-02-11T15:41:09.551Z,51.73
2023-02-11T15:43:46.044Z,51.32
2023-02-11T15:46:23.657Z,51.95
2023-02-11T15:48:58.903Z,52.36
2023-02-11T15:51:37.570Z,52.26
2023-02-11T15:54:20.242Z,52.91
2023-02-11T15:57:00.399Z,53.46
2023-02-11T15:59:38.362Z,53.78
2023-02-11T16:02:19.833Z,54.05
2023-02-11T16:04:57.665Z,53.96
2023-02-11T16:07:45.795Z,54.51
2023-02-11T16:10:24.773Z,54.45
2023-02-11T16:13:18.299Z,54.33
2023-02-11T16:15:55.729Z,54.53
2023-02-11T16:18:38.664Z,54.66
2023-02-11T16:21:17.864Z,54.80
2023-02-11T16:23:56.122Z,54.97
2023-02-11T16:26:33.946Z,54.97
2023-02-11T16:29:15.946Z,54.90
2023-02-11T16:31:51.129Z,55.20
2023-02-11T16:34:27.052Z,55.92
2023-02-11T16:37:05.673Z,55.42
2023-02-11T16:39:41.557Z,55.92
2023-02-11T16:42:16.614Z,55.92
2023-02-11T16:44:51.131Z,56.34
2023-02-11T16:47:27.777Z,56.27
2023-02-11T16:50:04.617Z,56.26
2023-02-11T16:52:39.421Z,56.33
2023-02-11T16:55:15.452Z,56.37
2023-02-11T16:57:50.439Z,56.08
2023-02-11T17:00:25.581Z,56.38
2023-02-11T17:03:00.552Z,56.56
2023-02-11T17:05:49.399Z,56.97
2023-02-11T17:08:30.108Z,56.90
2023-02-11T17:11:06.292Z,57.14
2023-02-11T17:13:42.245Z,56.33
2023-02-11T17:16:22.683Z,56.56
2023-02-11T17:18:57.533Z,55.97
2023-02-11T17:21:32.192Z,56.29
2023-02-11T17:24:07.132Z,56.35
2023-02-11T17:26:43.741Z,56.89
2023-02-11T17:29:22.314Z,57.43
2023-02-11T17:31:57.238Z,57.33
2023-02-11T17:34:32.472Z,57.54
2023-02-11T17:37:09.391Z,57.24
2023-02-11T17:39:44.767Z,57.75
2023-02-11T17:42:20.734Z,57.86
2023-02-11T17:44:55.255Z,58.13
2023-02-11T17:47:29.746Z,58.07
2023-02-11T17:50:05.078Z,58.16
2023-02-11T17:52:39.255Z,57.94
2023-02-11T17:55:14.823Z,57.91
2023-02-11T20:01:11.434Z,59.33
2023-02-11T20:03:50.482Z,59.33
2023-02-11T20:06:26.629Z,60.29
2023-02-11T20:09:03.537Z,60.83
2023-02-11T20:11:38.601Z,61.41
2023-02-11T20:14:14.891Z,61.49
2023-02-11T20:16:50.649Z,61.30
2023-02-11T20:19:25.536Z,61.65
2023-02-11T20:22:00.427Z,61.87
2023-02-11T20:24:35.168Z,62.29
2023-02-11T20:27:11.602Z,62.27
2023-02-11T20:29:46.667Z,62.75
2023-02-11T20:32:22.857Z,63.05
2023-02-11T20:34:57.444Z,62.98
2023-02-11T20:37:32.188Z,63.41
2023-02-11T20:40:08.592Z,63.61
2023-02-11T20:42:51.569Z,63.88
2023-02-11T20:45:26.285Z,100.00
2023-02-11T20:48:02.197Z,82.27
2023-02-11T20:50:37.021Z,72.02
2023-02-11T20:53:12.188Z,66.55
2023-02-11T20:55:46.989Z,64.99
2023-02-11T20:58:21.559Z,64.81
2023-02-11T21:00:56.530Z,64.21
2023-02-11T21:03:32.573Z,64.21
2023-02-11T21:06:08.661Z,64.75
2023-02-11T21:08:43.156Z,64.86
2023-02-11T21:11:18.220Z,64.95
2023-02-11T21:13:52.777Z,64.95
2023-02-11T21:16:28.065Z,64.85
2023-02-11T21:19:07.062Z,65.26
2023-02-11T21:21:42.220Z,65.82
2023-02-11T21:24:16.886Z,65.76
2023-02-11T21:26:51.653Z,66.51
2023-02-11T21:29:25.865Z,66.79
2023-02-11T21:32:00.952Z,67.09
2023-02-11T21:34:37.189Z,67.76
2023-02-11T21:37:12.066Z,68.21
2023-02-11T21:39:46.646Z,68.02
2023-02-11T21:42:21.514Z,67.64
2023-02-11T21:44:55.933Z,67.43
2023-02-11T21:47:30.992Z,67.25
2023-02-11T21:50:07.977Z,67.35
2023-02-11T21:52:42.760Z,67.32
2023-02-11T21:55:17.169Z,88.62
2023-02-11T21:57:51.822Z,96.97
2023-02-11T22:00:26.185Z,75.48
2023-02-11T22:03:01.198Z,65.98
2023-02-11T22:05:36.713Z,65.33
2023-02-11T22:08:11.484Z,65.91
2023-02-11T22:10:45.886Z,66.29
2023-02-11T22:13:20.553Z,66.93
2023-02-11T22:16:02.298Z,67.21
2023-02-11T22:18:37.259Z,67.68
2023-02-11T22:21:14.812Z,67.87
2023-02-11T22:23:49.661Z,68.39
2023-02-11T22:26:25.816Z,68.42
2023-02-11T22:29:00.330Z,68.80
2023-02-11T22:31:35.923Z,69.08
2023-02-11T22:34:11.098Z,69.59
2023-02-11T22:36:47.106Z,69.49
2023-02-11T22:39:21.522Z,69.52
2023-02-11T22:41:56.700Z,69.38
2023-02-11T22:44:31.145Z,69.15
2023-02-11T22:47:05.477Z,69.62
2023-02-11T22:49:41.432Z,69.79
2023-02-11T22:52:17.081Z,69.95
2023-02-11T22:54:52.412Z,69.97
2023-02-11T22:57:26.682Z,70.17
2023-02-11T23:00:01.178Z,70.42
2023-02-11T23:02:54.777Z,70.13
2023-02-11T23:05:29.773Z,70.13
2023-02-11T23:08:04.243Z,71.48
2023-02-11T23:10:40.168Z,71.89
2023-02-11T23:13:14.552Z,72.05
2023-02-11T23:15:49.185Z,72.30
2023-02-11T23:18:24.742Z,72.29
2023-02-11T23:21:04.483Z,72.10
2023-02-11T23:23:38.782Z,72.17
2023-02-11T23:26:15.514Z,72.39
2023-02-11T23:28:49.777Z,72.25
2023-02-11T23:31:27.068Z,72.04
2023-02-11T23:34:03.351Z,71.98
2023-02-11T23:36:38.774Z,71.98
2023-02-11T23:39:17.041Z,71.61
2023-02-11T23:41:53.301Z,71.65
2023-02-11T23:44:27.708Z,71.71
2023-02-11T23:47:02.261Z,71.87
2023-02-11T23:49:37.849Z,71.95
2023-02-11T23:52:12.378Z,72.01
2023-02-11T23:54:48.317Z,71.93
2023-02-11T23:57:22.826Z,71.94
2023-02-11T23:59:57.057Z,72.27
